Time;durP1;ratioP1;P1;durP2;ratioP2;P2;SDS_P1;SDS_P2;PMS_P1;PMS_P2;Temp;Humidity;BMP_temperature;BMP_pressure;BME280_temperature;BME280_humidity;BME280_pressure;Samples;Min_cycle;Max_cycle;Signal;HPM_P1;HPM_P2
2021/12/05 00:22:41;;;;;;;44.85;25.97;;;17.50;69.80;;;;;;1826242;77;21629;-79
2021/12/05 00:25:09;;;;;;;40.03;26.05;;;17.50;70.10;;;;;;1810748;78;21088;-79
2021/12/05 00:27:49;;;;;;;40.75;25.15;;;17.50;70.10;;;;;;1817027;78;21119;-78
2021/12/05 00:55:55;;;;;;;36.38;22.05;;;18.50;63.80;;;;;;1819000;77;21233;-79
2021/12/05 01:16:03;;;;;;;32.63;17.07;;;19.20;59.70;;;;;;1876708;76;21612;-79
2021/12/05 01:18:36;;;;;;;31.15;18.67;;;19.30;59.10;;;;;;1866897;76;21650;-81
2021/12/05 01:21:10;;;;;;;32.65;18.05;;;19.30;59.20;;;;;;1876340;76;21094;-80
2021/12/05 01:23:59;;;;;;;29.70;17.20;;;19.40;59.30;;;;;;1883920;76;21195;-80
2021/12/05 01:26:28;;;;;;;27.45;16.85;;;19.50;59.10;;;;;;1885381;76;21059;-80
2021/12/05 01:31:36;;;;;;;25.30;14.70;;;19.70;58.20;;;;;;1880035;76;21774;-80
2021/12/05 01:34:14;;;;;;;31.07;16.55;;;19.70;57.10;;;;;;1874409;76;21102;-80
2021/12/05 02:35:25;;;;;;;29.20;16.57;;;21.00;53.50;;;;;;1870514;76;21581;-80
2021/12/05 02:45:19;;;;;;;24.57;16.40;;;21.20;53.00;;;;;;1870779;76;21293;-80
2021/12/05 02:47:52;;;;;;;31.12;15.60;;;21.30;53.40;;;;;;1868785;76;22354;-80
2021/12/05 02:50:24;;;;;;;26.52;15.00;;;21.30;53.00;;;;;;1791253;80;21083;-80
2021/12/05 02:53:00;;;;;;;24.40;15.32;;;21.40;52.20;;;;;;1840898;78;21123;-80
2021/12/05 02:55:43;;;;;;;22.00;14.75;;;21.40;51.80;;;;;;1788796;79;21159;-79
2021/12/05 02:58:14;;;;;;;21.90;13.88;;;21.40;51.70;;;;;;1811328;77;21855;-79
2021/12/05 03:00:43;;;;;;;31.55;17.02;;;21.50;52.30;;;;;;1812041;78;21072;-79
2021/12/05 03:03:21;;;;;;;26.73;15.72;;;21.50;52.30;;;;;;1830289;78;21158;-78
2021/12/05 03:05:52;;;;;;;24.67;14.87;;;21.50;52.40;;;;;;1826304;78;21069;-78
2021/12/05 03:08:28;;;;;;;26.33;15.20;;;21.50;52.40;;;;;;1819072;78;21221;-78
2021/12/05 03:11:04;;;;;;;24.10;16.12;;;21.60;52.20;;;;;;1814375;77;21669;-79
2021/12/05 03:13:37;;;;;;;23.32;16.20;;;21.70;52.10;;;;;;1803182;79;21180;-78
2021/12/05 03:16:10;;;;;;;31.45;16.02;;;21.80;51.90;;;;;;1805168;78;21684;-78
2021/12/05 03:18:42;;;;;;;26.45;14.40;;;21.90;51.70;;;;;;1827384;77;21143;-79
2021/12/05 03:21:14;;;;;;;26.30;15.63;;;22.00;51.60;;;;;;1827511;77;21256;-78
2021/12/05 03:23:47;;;;;;;27.00;15.20;;;22.00;51.50;;;;;;1816018;78;21139;-78
2021/12/05 03:26:21;;;;;;;30.30;14.87;;;22.10;51.70;;;;;;1827378;78;21233;-78
2021/12/05 03:28:55;;;;;;;23.10;15.15;;;22.10;51.80;;;;;;1819098;78;21182;-78
2021/12/05 03:31:27;;;;;;;27.00;16.05;;;22.30;51.70;;;;;;1812718;78;21660;-78
2021/12/05 03:33:59;;;;;;;29.45;16.10;;;22.30;51.10;;;;;;1803812;78;21153;-78
2021/12/05 03:36:32;;;;;;;24.15;15.25;;;22.40;51.10;;;;;;1807135;78;21201;-79
2021/12/05 03:39:03;;;;;;;22.27;15.30;;;22.50;50.60;;;;;;1807128;79;21143;-78
2021/12/05 03:41:37;;;;;;;25.95;15.43;;;22.60;51.00;;;;;;1811633;79;21083;-79
2021/12/05 03:44:13;;;;;;;23.52;14.83;;;22.70;50.40;;;;;;1834913;77;21142;-78
2021/12/05 03:46:51;;;;;;;29.05;15.18;;;22.80;50.00;;;;;;1821245;78;21887;-77
2021/12/05 03:49:28;;;;;;;25.45;14.83;;;22.90;49.40;;;;;;1814017;78;21104;-79
2021/12/05 03:52:02;;;;;;;23.73;14.50;;;23.00;49.20;;;;;;1818752;78;21103;-78
2021/12/05 03:54:33;;;;;;;26.15;14.73;;;23.10;48.20;;;;;;1805917;77;21186;-78
2021/12/05 03:57:05;;;;;;;23.65;15.40;;;23.20;48.50;;;;;;1815834;78;21881;-79
2021/12/05 03:59:39;;;;;;;25.30;15.28;;;23.30;48.20;;;;;;1808807;78;21585;-78
2021/12/05 04:02:11;;;;;;;27.48;15.58;;;23.40;47.40;;;;;;1872127;76;21973;-79
2021/12/05 04:04:43;;;;;;;23.47;14.85;;;23.60;47.20;;;;;;1864845;76;21169;-79
2021/12/05 04:07:15;;;;;;;23.30;15.00;;;23.70;47.20;;;;;;1864025;76;21488;-78
2021/12/05 04:09:48;;;;;;;22.65;13.75;;;23.80;47.00;;;;;;1870037;76;21561;-77
2021/12/05 04:12:20;;;;;;;20.05;12.90;;;24.00;48.50;;;;;;1866683;76;21557;-77
2021/12/05 04:14:55;;;;;;;19.42;12.68;;;24.20;46.10;;;;;;1869422;76;21114;-78
2021/12/05 04:17:26;;;;;;;21.82;13.83;;;24.20;46.60;;;;;;1870638;76;21118;-78
2021/12/05 04:19:57;;;;;;;18.90;12.58;;;24.40;44.30;;;;;;1844890;77;21169;-78
2021/12/05 04:22:29;;;;;;;19.80;13.13;;;24.40;45.30;;;;;;1822555;79;21150;-78
2021/12/05 04:25:03;;;;;;;21.82;13.15;;;24.60;43.90;;;;;;1874658;76;21191;-77
2021/12/05 04:27:38;;;;;;;26.27;13.53;;;24.70;44.20;;;;;;1876421;76;21137;-78
2021/12/05 04:30:12;;;;;;;22.32;13.22;;;24.80;44.20;;;;;;1835487;77;21122;-78
2021/12/05 04:32:46;;;;;;;22.85;12.15;;;24.80;43.50;;;;;;1873783;76;21137;-77
2021/12/05 04:35:18;;;;;;;18.50;11.08;;;24.90;42.40;;;;;;1871568;76;21137;-78
2021/12/05 04:37:49;;;;;;;20.23;11.63;;;25.00;42.90;;;;;;1873873;76;21110;-77
2021/12/05 04:40:23;;;;;;;22.25;10.53;;;25.10;41.70;;;;;;1877347;76;21129;-78
2021/12/05 04:42:56;;;;;;;16.77;9.80;;;25.20;40.30;;;;;;1864519;76;21091;-77
2021/12/05 04:45:29;;;;;;;17.80;9.48;;;25.30;39.20;;;;;;1874185;76;21145;-78
2021/12/05 04:48:01;;;;;;;21.27;10.28;;;25.40;39.20;;;;;;1868192;76;21475;-78
2021/12/05 04:50:36;;;;;;;16.27;9.33;;;25.40;38.60;;;;;;1872560;76;21109;-78
2021/12/05 04:53:08;;;;;;;16.23;9.93;;;25.50;40.00;;;;;;1872941;76;21098;-76
2021/12/05 04:55:39;;;;;;;18.15;9.85;;;25.50;39.40;;;;;;1872163;76;21137;-77
2021/12/05 04:58:09;;;;;;;21.75;9.78;;;25.60;39.30;;;;;;1873320;76;21590;-78
2021/12/05 05:00:43;;;;;;;15.05;9.30;;;25.80;39.00;;;;;;1865019;76;21115;-78
2021/12/05 05:03:16;;;;;;;18.73;10.53;;;25.90;39.00;;;;;;1867341;75;22026;-78
2021/12/05 05:05:54;;;;;;;19.80;10.95;;;25.90;38.70;;;;;;1851011;76;21131;-77
2021/12/05 05:08:20;;;;;;;19.15;10.13;;;26.00;39.80;;;;;;1857008;76;21150;-77
2021/12/05 05:10:51;;;;;;;19.25;10.15;;;26.10;39.70;;;;;;1855022;76;21692;-79
2021/12/05 05:13:22;;;;;;;26.52;10.05;;;26.20;39.40;;;;;;1853965;76;21158;-80
2021/12/05 05:15:58;;;;;;;16.62;9.90;;;26.20;39.10;;;;;;1855254;76;21192;-78
2021/12/05 05:18:37;;;;;;;17.98;10.10;;;26.30;38.40;;;;;;1855529;76;21519;-78
2021/12/05 05:30:05;;;;;;;20.65;10.40;;;26.50;38.80;;;;;;1853146;76;21389;-78
2021/12/05 05:49:16;;;;;;;19.80;10.10;;;26.70;39.30;;;;;;1821612;78;21634;-78
2021/12/05 05:51:45;;;;;;;16.97;10.05;;;26.80;39.40;;;;;;1826466;78;21095;-78
2021/12/05 05:54:18;;;;;;;16.40;9.65;;;26.80;39.80;;;;;;1813687;78;21219;-78
2021/12/05 05:56:54;;;;;;;14.50;9.58;;;26.90;39.70;;;;;;1811655;78;22253;-79
2021/12/05 05:59:28;;;;;;;21.17;9.50;;;26.90;39.20;;;;;;1836802;77;21056;-77
2021/12/05 06:03:20;;;;;;;22.27;10.05;;;27.00;39.40;;;;;;1837627;78;21115;-78
2021/12/05 06:04:29;;;;;;;20.45;10.72;;;27.00;38.70;;;;;;1836457;77;21589;-77
2021/12/05 06:07:00;;;;;;;24.85;10.28;;;27.00;39.20;;;;;;1855341;77;21149;-77
2021/12/05 06:09:40;;;;;;;15.35;8.55;;;27.00;39.50;;;;;;1853272;77;21551;-77
2021/12/05 06:12:08;;;;;;;14.47;9.13;;;27.00;38.70;;;;;;1854527;77;21642;-77
2021/12/05 06:14:39;;;;;;;17.82;8.80;;;27.00;38.40;;;;;;1788950;79;21580;-77
2021/12/05 06:17:11;;;;;;;14.20;8.28;;;27.10;38.70;;;;;;1799031;79;21149;-77
2021/12/05 06:19:42;;;;;;;14.68;8.90;;;27.10;38.70;;;;;;1827470;77;21095;-77
2021/12/05 06:22:14;;;;;;;16.55;8.55;;;27.20;38.90;;;;;;1824348;78;21256;-77
2021/12/05 06:24:46;;;;;;;16.45;8.75;;;27.30;38.80;;;;;;1826570;77;21670;-77
2021/12/05 06:27:18;;;;;;;30.40;9.75;;;27.30;38.80;;;;;;1826350;77;21184;-77
2021/12/05 06:30:02;;;;;;;13.15;8.25;;;27.30;38.50;;;;;;1842345;77;21543;-78
2021/12/05 06:37:48;;;;;;;18.85;8.83;;;27.30;38.30;;;;;;1854465;77;21618;-77
2021/12/05 06:43:03;;;;;;;14.53;8.33;;;27.30;38.40;;;;;;1844554;77;21165;-78
2021/12/05 06:47:54;;;;;;;15.10;8.65;;;27.30;38.30;;;;;;1829469;77;21118;-78
2021/12/05 06:50:27;;;;;;;17.73;8.18;;;27.30;38.00;;;;;;1830786;77;21231;-78
2021/12/05 06:52:57;;;;;;;16.60;8.10;;;27.30;37.80;;;;;;1824252;77;21551;-78
2021/12/05 06:55:31;;;;;;;15.30;8.60;;;27.30;38.30;;;;;;1825419;77;21664;-78
2021/12/05 06:58:00;;;;;;;18.80;9.13;;;27.40;38.70;;;;;;1837559;77;21081;-78
2021/12/05 07:00:32;;;;;;;18.10;8.63;;;27.30;38.60;;;;;;1839637;77;21259;-77
2021/12/05 07:03:07;;;;;;;19.05;8.93;;;27.30;37.90;;;;;;1804373;79;21151;-78
2021/12/05 07:08:16;;;;;;;13.93;8.33;;;27.20;39.70;;;;;;1825649;78;21459;-78
2021/12/05 07:21:17;;;;;;;17.05;8.93;;;27.30;38.40;;;;;;1821880;78;21693;-78
2021/12/05 07:26:12;;;;;;;12.25;7.53;;;27.40;38.90;;;;;;1824090;78;21177;-78
2021/12/05 07:43:54;;;;;;;12.47;7.08;;;27.30;38.90;;;;;;1808273;79;21175;-78
2021/12/05 07:46:26;;;;;;;12.70;7.78;;;27.30;39.40;;;;;;1809270;79;21709;-78
2021/12/05 07:48:57;;;;;;;17.50;8.05;;;27.20;39.00;;;;;;1809254;79;21579;-79
2021/12/05 07:51:29;;;;;;;17.07;7.97;;;27.20;39.50;;;;;;1762727;80;21145;-78
2021/12/05 07:56:50;;;;;;;12.05;8.13;;;27.10;39.60;;;;;;1778565;79;21552;-79
2021/12/05 07:59:24;;;;;;;13.28;7.83;;;27.10;39.70;;;;;;1837080;78;21126;-78
2021/12/05 08:14:41;;;;;;;13.15;8.05;;;27.00;40.90;;;;;;1840763;77;21689;-78
2021/12/05 08:16:57;;;;;;;13.05;7.28;;;27.00;40.60;;;;;;1838810;77;21648;-78
2021/12/05 08:19:28;;;;;;;22.25;9.28;;;26.90;40.80;;;;;;1838633;77;21639;-79
2021/12/05 08:21:59;;;;;;;12.40;7.87;;;26.90;41.00;;;;;;1840441;77;21155;-79
2021/12/05 08:24:33;;;;;;;14.38;7.70;;;26.90;41.20;;;;;;1801356;79;21185;-79
2021/12/05 08:27:05;;;;;;;16.27;9.03;;;26.90;41.40;;;;;;1838488;77;21535;-78
2021/12/05 08:29:48;;;;;;;13.88;8.63;;;26.90;41.50;;;;;;1842445;77;21075;-78
2021/12/05 08:34:53;;;;;;;15.20;9.33;;;26.80;41.70;;;;;;1838210;77;21719;-78
2021/12/05 09:28:36;;;;;;;13.50;8.45;;;26.40;43.70;;;;;;1838454;78;21166;-78
2021/12/05 10:11:42;;;;;;;17.60;11.03;;;25.80;46.30;;;;;;1854425;77;21107;-79
2021/12/05 10:16:52;;;;;;;26.50;12.98;;;25.70;46.80;;;;;;1854107;77;21106;-79
2021/12/05 10:20:15;;;;;;;22.02;13.53;;;25.60;47.00;;;;;;1852309;77;21684;-78
2021/12/05 10:27:13;;;;;;;21.52;14.00;;;25.50;47.50;;;;;;1852335;77;21929;-77
2021/12/05 10:37:20;;;;;;;25.68;14.73;;;25.30;48.20;;;;;;1864083;76;21523;-77
2021/12/05 10:39:52;;;;;;;34.03;16.93;;;25.30;48.50;;;;;;1866970;77;21659;-77
2021/12/05 10:44:58;;;;;;;27.52;16.87;;;25.30;49.00;;;;;;1864739;77;21149;-78
2021/12/05 10:47:32;;;;;;;27.50;16.00;;;25.20;49.20;;;;;;1921246;75;21504;-78
2021/12/05 10:50:05;;;;;;;25.82;14.40;;;25.10;49.40;;;;;;1918764;75;21158;-77
2021/12/05 10:52:36;;;;;;;29.35;13.70;;;25.10;49.70;;;;;;1886682;75;21648;-77
2021/12/05 10:55:08;;;;;;;27.55;15.95;;;25.10;49.60;;;;;;1899419;75;21054;-78
2021/12/05 10:57:41;;;;;;;24.52;14.70;;;25.10;49.60;;;;;;1919812;75;21082;-77
2021/12/05 11:00:14;;;;;;;27.70;15.78;;;25.00;49.50;;;;;;1919801;75;21141;-77
2021/12/05 11:02:44;;;;;;;29.45;16.55;;;25.00;49.60;;;;;;1920921;75;21208;-78
2021/12/05 11:05:18;;;;;;;31.70;16.23;;;25.00;49.70;;;;;;1921034;75;21542;-78
2021/12/05 11:07:49;;;;;;;31.48;17.95;;;25.00;49.70;;;;;;1915631;75;21067;-78
2021/12/05 11:10:21;;;;;;;38.00;19.37;;;25.00;49.90;;;;;;1920696;75;21138;-78
2021/12/05 11:12:51;;;;;;;31.17;19.05;;;24.90;50.00;;;;;;1922789;74;21147;-78
2021/12/05 11:15:25;;;;;;;30.88;17.92;;;24.90;50.20;;;;;;1921935;74;21122;-77
2021/12/05 11:17:56;;;;;;;27.82;17.90;;;24.90;50.40;;;;;;1919420;75;21160;-78
2021/12/05 11:20:30;;;;;;;34.48;17.90;;;24.80;50.30;;;;;;1920903;73;21118;-79
2021/12/05 11:23:01;;;;;;;33.25;18.90;;;24.80;50.50;;;;;;1921420;75;21744;-78
2021/12/05 11:25:38;;;;;;;29.35;18.32;;;24.70;50.60;;;;;;1920895;75;21610;-79
2021/12/05 11:28:08;;;;;;;31.70;18.55;;;24.70;51.30;;;;;;1919716;75;21212;-78
2021/12/05 11:30:43;;;;;;;32.10;19.05;;;24.70;50.70;;;;;;1920819;74;21111;-78
2021/12/05 11:33:18;;;;;;;32.78;17.67;;;24.60;50.80;;;;;;1923994;74;21610;-78
2021/12/05 11:35:50;;;;;;;28.90;18.05;;;24.70;50.90;;;;;;1923929;74;21146;-77
2021/12/05 11:38:23;;;;;;;31.57;17.42;;;24.60;51.00;;;;;;1922621;74;21594;-79
2021/12/05 11:40:58;;;;;;;35.98;19.40;;;24.60;51.00;;;;;;1923268;74;21634;-78
2021/12/05 11:43:31;;;;;;;29.90;18.48;;;24.60;51.20;;;;;;1924270;74;21396;-79
2021/12/05 11:46:06;;;;;;;34.23;18.98;;;24.60;51.40;;;;;;1922968;74;21628;-78
2021/12/05 11:48:39;;;;;;;33.02;20.27;;;24.50;51.50;;;;;;1924592;74;21110;-79
2021/12/05 11:51:12;;;;;;;35.75;21.82;;;24.50;51.70;;;;;;1905348;74;21110;-79
2021/12/05 11:53:45;;;;;;;33.58;22.13;;;24.50;51.90;;;;;;1920240;74;21075;-79
2021/12/05 11:56:19;;;;;;;33.18;22.45;;;24.50;52.00;;;;;;1909718;74;21129;-78
2021/12/05 11:58:52;;;;;;;37.38;23.92;;;24.40;52.00;;;;;;1924243;74;21386;-78
2021/12/05 12:01:24;;;;;;;42.35;26.65;;;24.40;52.30;;;;;;1921782;74;21239;-79
2021/12/05 12:03:56;;;;;;;42.20;24.10;;;24.40;52.60;;;;;;1923116;74;21120;-77
2021/12/05 12:06:27;;;;;;;42.20;25.55;;;24.40;52.60;;;;;;1924756;74;21220;-77
2021/12/05 12:08:58;;;;;;;41.95;26.82;;;24.40;52.80;;;;;;1923912;74;21246;-78
2021/12/05 12:11:28;;;;;;;42.30;25.82;;;24.30;53.10;;;;;;1920824;74;21138;-77
2021/12/05 12:14:00;;;;;;;35.65;22.52;;;24.30;53.20;;;;;;1918160;74;21166;-79
2021/12/05 12:16:37;;;;;;;41.25;25.60;;;24.30;53.10;;;;;;1917909;74;21157;-78
2021/12/05 12:19:08;;;;;;;38.10;24.45;;;24.30;53.30;;;;;;1925356;74;21641;-79
2021/12/05 12:21:42;;;;;;;48.85;27.90;;;24.20;53.30;;;;;;1924501;74;21196;-79
2021/12/05 12:24:13;;;;;;;42.17;25.25;;;24.20;53.50;;;;;;1923511;73;21146;-79
2021/12/05 12:26:47;;;;;;;40.63;25.37;;;24.20;53.60;;;;;;1882699;76;21149;-78
2021/12/05 12:29:19;;;;;;;48.45;26.30;;;24.20;53.60;;;;;;1922354;74;21068;-80
2021/12/05 12:31:53;;;;;;;42.65;26.82;;;24.10;53.60;;;;;;1853683;76;21541;-79
2021/12/05 12:34:24;;;;;;;37.55;23.40;;;24.10;53.60;;;;;;1911985;75;21118;-79
2021/12/05 12:36:57;;;;;;;39.13;23.47;;;24.10;53.60;;;;;;1911649;75;21087;-79
2021/12/05 12:39:31;;;;;;;40.30;22.87;;;24.10;53.60;;;;;;1911449;75;21095;-78
2021/12/05 12:42:09;;;;;;;40.58;21.93;;;24.00;53.60;;;;;;1910412;75;21115;-79
2021/12/05 12:44:42;;;;;;;31.10;20.97;;;24.00;53.70;;;;;;1911396;75;21115;-79
2021/12/05 12:47:15;;;;;;;30.93;19.47;;;24.00;53.70;;;;;;1909337;75;21173;-79
2021/12/05 12:49:46;;;;;;;36.38;20.32;;;23.90;53.60;;;;;;1911167;75;21115;-79
2021/12/05 12:52:18;;;;;;;34.75;21.82;;;23.90;53.60;;;;;;1911120;75;21111;-79
2021/12/05 12:54:53;;;;;;;33.35;21.62;;;23.90;53.80;;;;;;1911610;75;21155;-78
2021/12/05 12:57:29;;;;;;;30.23;19.55;;;23.90;53.60;;;;;;1911492;75;21412;-79
2021/12/05 13:00:03;;;;;;;34.67;20.27;;;23.90;53.70;;;;;;1911449;75;21544;-77
2021/12/05 13:02:51;;;;;;;41.90;21.42;;;23.90;53.70;;;;;;1909877;75;21590;-78
2021/12/05 13:10:19;;;;;;;31.70;20.00;;;23.80;53.80;;;;;;1909218;75;21068;-79
2021/12/05 13:12:52;;;;;;;33.58;20.08;;;23.80;53.80;;;;;;1909357;75;21115;-79
2021/12/05 13:15:26;;;;;;;31.73;20.62;;;23.80;53.80;;;;;;1910583;75;21225;-79
2021/12/05 13:17:59;;;;;;;43.83;22.02;;;23.80;54.00;;;;;;1909788;75;21560;-78
2021/12/05 13:20:33;;;;;;;37.70;20.40;;;23.70;54.00;;;;;;1909610;75;21578;-78
2021/12/05 13:23:06;;;;;;;36.35;20.12;;;23.70;54.10;;;;;;1910263;75;21531;-78
2021/12/05 13:25:40;;;;;;;33.60;20.00;;;23.70;54.00;;;;;;1911558;75;21633;-79
2021/12/05 13:28:13;;;;;;;33.60;20.32;;;23.70;54.20;;;;;;1908489;75;21178;-79
2021/12/05 13:30:45;;;;;;;34.30;21.07;;;23.70;54.40;;;;;;1907374;75;21149;-78
2021/12/05 13:33:20;;;;;;;37.95;21.20;;;23.60;54.40;;;;;;1912039;74;21220;-78
2021/12/05 13:35:57;;;;;;;34.98;20.77;;;23.70;54.60;;;;;;1911878;75;21111;-78
2021/12/05 13:38:28;;;;;;;39.20;21.00;;;23.60;54.40;;;;;;1911242;75;21189;-78
2021/12/05 13:41:01;;;;;;;29.57;20.48;;;23.60;54.60;;;;;;1909207;75;21531;-79
2021/12/05 13:43:32;;;;;;;34.53;20.97;;;23.50;54.50;;;;;;1907232;75;21113;-78
2021/12/05 13:46:05;;;;;;;29.82;19.75;;;23.50;54.60;;;;;;1911460;75;21142;-80
2021/12/05 13:48:36;;;;;;;32.65;21.93;;;23.50;54.60;;;;;;1907712;75;21174;-79
2021/12/05 13:51:08;;;;;;;31.68;20.00;;;23.50;54.70;;;;;;1911807;75;21111;-79
2021/12/05 13:53:41;;;;;;;32.70;20.25;;;23.40;54.80;;;;;;1912802;75;21680;-77
2021/12/05 13:56:14;;;;;;;34.55;21.93;;;23.40;54.80;;;;;;1909611;75;21131;-79
2021/12/05 13:58:48;;;;;;;32.95;21.12;;;23.40;54.80;;;;;;1905209;75;21162;-78
2021/12/05 14:01:25;;;;;;;37.33;21.80;;;23.40;54.90;;;;;;1909478;75;21101;-78
2021/12/05 14:03:59;;;;;;;30.77;20.57;;;23.40;55.00;;;;;;1910806;75;21599;-78
2021/12/05 14:06:32;;;;;;;35.90;20.30;;;23.40;55.00;;;;;;1905416;74;21111;-78
2021/12/05 14:09:06;;;;;;;33.13;20.37;;;23.30;55.10;;;;;;1907160;75;21142;-78
2021/12/05 14:11:39;;;;;;;35.23;20.85;;;23.30;55.10;;;;;;1908083;75;21146;-78
2021/12/05 14:14:11;;;;;;;33.18;20.30;;;23.30;55.10;;;;;;1911517;75;21539;-78
2021/12/05 14:16:45;;;;;;;36.68;22.50;;;23.30;55.30;;;;;;1911408;75;21143;-78
2021/12/05 14:19:18;;;;;;;34.73;22.50;;;23.20;55.30;;;;;;1911310;75;21154;-79
2021/12/05 14:21:51;;;;;;;40.73;24.50;;;23.20;55.40;;;;;;1910152;75;21114;-78
2021/12/05 14:24:25;;;;;;;36.42;21.97;;;23.20;55.40;;;;;;1879123;76;21079;-78
2021/12/05 14:26:58;;;;;;;36.83;21.45;;;23.10;55.50;;;;;;1884134;75;21243;-80
2021/12/05 14:29:33;;;;;;;33.67;21.90;;;23.10;55.60;;;;;;1918859;73;21056;-78
2021/12/05 14:32:06;;;;;;;33.78;22.62;;;23.10;55.70;;;;;;1873854;75;21197;-78
2021/12/05 14:34:38;;;;;;;35.43;21.00;;;23.10;56.50;;;;;;1911661;74;21624;-79
2021/12/05 14:37:11;;;;;;;34.48;20.50;;;23.10;55.90;;;;;;1907098;75;21139;-78
2021/12/05 14:39:44;;;;;;;33.40;21.07;;;23.00;55.90;;;;;;1908941;75;21230;-79
2021/12/05 14:42:17;;;;;;;32.48;20.90;;;23.00;55.90;;;;;;1903438;75;21551;-78
2021/12/05 14:44:50;;;;;;;31.27;19.50;;;23.00;56.10;;;;;;1879210;76;21641;-78
2021/12/05 14:47:24;;;;;;;37.20;21.07;;;23.00;56.20;;;;;;1908332;75;21767;-78
2021/12/05 14:49:57;;;;;;;38.20;20.37;;;23.00;56.20;;;;;;1911384;75;21137;-78
2021/12/05 14:52:31;;;;;;;35.43;19.52;;;23.00;56.30;;;;;;1891090;75;21572;-78
2021/12/05 14:55:04;;;;;;;32.35;20.75;;;22.90;56.30;;;;;;1916885;73;21574;-78
2021/12/05 14:57:37;;;;;;;33.80;20.12;;;22.90;56.40;;;;;;1911356;75;21593;-78
2021/12/05 15:00:11;;;;;;;28.47;19.95;;;22.90;56.50;;;;;;1907078;73;21131;-78
2021/12/05 15:02:42;;;;;;;33.88;19.77;;;22.90;56.60;;;;;;1896474;75;21157;-78
2021/12/05 15:05:16;;;;;;;33.70;21.50;;;22.90;56.70;;;;;;1909222;75;21083;-80
2021/12/05 15:07:49;;;;;;;35.68;20.65;;;22.90;57.00;;;;;;1902639;75;21464;-79
2021/12/05 15:10:21;;;;;;;30.08;19.67;;;22.80;57.10;;;;;;1907270;75;21582;-79
2021/12/05 15:12:55;;;;;;;30.92;19.50;;;22.80;57.20;;;;;;1905598;75;21641;-77
2021/12/05 15:15:30;;;;;;;32.03;19.50;;;22.70;57.20;;;;;;1902151;75;21147;-78
2021/12/05 15:18:05;;;;;;;32.80;20.25;;;22.80;57.40;;;;;;1900718;75;21138;-78
2021/12/05 15:20:36;;;;;;;37.33;22.50;;;22.70;57.50;;;;;;1907572;75;21103;-78
2021/12/05 15:26:07;;;;;;;38.23;25.50;;;22.60;59.00;;;;;;1865887;76;21753;-79
2021/12/05 15:28:39;;;;;;;43.25;26.55;;;22.50;59.30;;;;;;1873579;76;21280;-80
2021/12/05 15:31:10;;;;;;;40.05;25.75;;;22.50;59.60;;;;;;1883316;76;21121;-80
2021/12/05 15:33:41;;;;;;;41.45;24.75;;;22.40;59.40;;;;;;1888481;76;21110;-78
2021/12/05 15:36:13;;;;;;;44.80;26.45;;;22.40;59.70;;;;;;1892578;76;21305;-78
2021/12/05 15:38:44;;;;;;;41.65;26.15;;;22.30;60.00;;;;;;1893026;76;21682;-79
2021/12/05 15:41:17;;;;;;;38.75;25.17;;;22.30;59.80;;;;;;1863601;76;21629;-80
2021/12/05 15:43:48;;;;;;;43.58;26.05;;;22.30;60.10;;;;;;1869651;76;21621;-80
2021/12/05 15:46:19;;;;;;;41.50;26.50;;;22.20;60.00;;;;;;1882453;73;21289;-79
2021/12/05 15:48:52;;;;;;;41.83;25.50;;;22.20;60.10;;;;;;1892610;76;21141;-79
2021/12/05 15:51:24;;;;;;;38.98;25.30;;;22.20;60.20;;;;;;1915174;75;21476;-79
2021/12/05 15:53:58;;;;;;;37.98;24.57;;;22.20;60.50;;;;;;1920991;73;21575;-80
2021/12/05 15:56:29;;;;;;;41.95;25.45;;;22.20;60.50;;;;;;1880923;75;21187;-79
2021/12/05 15:59:07;;;;;;;44.58;26.30;;;22.10;60.80;;;;;;1842815;75;21765;-79
2021/12/05 16:01:35;;;;;;;39.18;24.60;;;22.10;61.40;;;;;;1851291;77;21666;-79
2021/12/05 16:04:09;;;;;;;39.23;24.87;;;22.10;61.40;;;;;;1857244;76;21169;-79
2021/12/05 16:06:43;;;;;;;42.03;25.20;;;22.00;61.60;;;;;;1872736;76;21515;-79
2021/12/05 16:09:17;;;;;;;39.78;26.00;;;22.00;62.70;;;;;;1852377;76;21625;-80
2021/12/05 16:11:51;;;;;;;43.25;25.15;;;22.00;61.80;;;;;;1851906;76;21758;-80
2021/12/05 16:14:24;;;;;;;44.48;23.92;;;21.90;62.40;;;;;;1854336;76;21122;-80
2021/12/05 16:16:55;;;;;;;38.70;24.07;;;22.00;62.40;;;;;;1879944;76;21274;-79
2021/12/05 16:19:26;;;;;;;38.83;23.38;;;22.00;63.20;;;;;;1850215;76;21550;-79
2021/12/05 16:21:59;;;;;;;37.50;23.55;;;21.90;63.40;;;;;;1840268;77;21255;-80
2021/12/05 16:24:30;;;;;;;38.10;24.92;;;21.90;63.50;;;;;;1875393;76;21566;-80
2021/12/05 16:27:03;;;;;;;38.65;24.92;;;21.90;63.80;;;;;;1865625;76;21134;-79
2021/12/05 16:29:35;;;;;;;46.02;25.82;;;21.90;64.10;;;;;;1856102;76;21633;-80
2021/12/05 16:32:06;;;;;;;42.85;25.27;;;21.90;64.20;;;;;;1887460;76;21720;-79
2021/12/05 16:34:42;;;;;;;37.65;25.62;;;21.90;64.20;;;;;;1886599;76;21578;-78
2021/12/05 16:37:12;;;;;;;40.75;25.15;;;21.90;64.20;;;;;;1886752;76;21535;-77
2021/12/05 16:39:50;;;;;;;38.50;24.18;;;21.90;64.50;;;;;;1886856;76;21071;-77
2021/12/05 16:42:23;;;;;;;42.33;25.62;;;21.80;64.30;;;;;;1887070;76;21075;-78
2021/12/05 16:44:56;;;;;;;37.80;25.48;;;21.80;64.40;;;;;;1882004;76;21104;-78
2021/12/05 16:47:30;;;;;;;33.58;23.20;;;21.80;65.00;;;;;;1855409;77;21554;-79
2021/12/05 16:50:04;;;;;;;40.78;23.32;;;21.80;65.20;;;;;;1859663;76;21154;-80
2021/12/05 16:52:39;;;;;;;34.60;22.98;;;21.70;65.60;;;;;;1857844;76;21122;-79
2021/12/05 16:55:21;;;;;;;36.30;23.50;;;21.70;65.80;;;;;;1875844;76;21134;-77
2021/12/05 16:57:53;;;;;;;37.58;23.57;;;21.60;66.10;;;;;;1897897;75;21123;-79
2021/12/05 17:00:19;;;;;;;36.30;24.07;;;21.60;66.10;;;;;;1901931;75;21539;-79
2021/12/05 17:02:54;;;;;;;41.10;23.22;;;21.60;66.30;;;;;;1882620;76;21195;-79
2021/12/05 17:05:28;;;;;;;35.65;23.80;;;21.60;66.20;;;;;;1944977;73;21183;-79
2021/12/05 17:08:13;;;;;;;31.40;21.75;;;21.60;66.80;;;;;;1933780;73;21462;-79
2021/12/05 17:10:36;;;;;;;34.48;23.07;;;21.50;67.00;;;;;;1895502;75;21660;-79
2021/12/05 17:13:09;;;;;;;31.15;21.27;;;21.50;67.60;;;;;;1873683;76;21138;-79
2021/12/05 17:15:42;;;;;;;35.78;22.15;;;21.50;67.80;;;;;;1899254;74;21566;-79
2021/12/05 17:18:16;;;;;;;36.70;22.40;;;21.50;67.80;;;;;;1896028;75;21640;-79
2021/12/05 17:20:49;;;;;;;34.88;22.15;;;21.40;68.10;;;;;;1877861;75;21110;-80
2021/12/05 17:23:22;;;;;;;33.02;21.55;;;21.40;68.20;;;;;;1935609;73;21118;-79
2021/12/05 17:25:57;;;;;;;39.73;22.90;;;21.40;68.50;;;;;;1923439;73;21577;-79
2021/12/05 17:28:30;;;;;;;33.65;21.80;;;21.40;68.80;;;;;;1888914;74;21593;-79
2021/12/05 17:31:03;;;;;;;35.05;22.20;;;21.30;69.70;;;;;;1958268;72;21548;-79
2021/12/05 17:33:37;;;;;;;38.08;21.70;;;21.30;69.50;;;;;;1971814;72;21180;-79
2021/12/05 17:36:10;;;;;;;33.35;21.70;;;21.30;69.50;;;;;;1924214;74;21585;-79
2021/12/05 17:38:42;;;;;;;36.83;21.23;;;21.30;69.60;;;;;;1919764;73;21557;-79
2021/12/05 17:41:13;;;;;;;31.62;21.42;;;21.30;70.00;;;;;;1994411;72;22487;-79
2021/12/05 17:43:45;;;;;;;39.53;22.82;;;21.20;70.00;;;;;;1994477;72;21615;-79
2021/12/05 17:46:16;;;;;;;28.05;19.77;;;21.20;70.00;;;;;;1932038;72;21162;-79
2021/12/05 17:48:47;;;;;;;28.70;20.12;;;21.20;70.10;;;;;;1941455;72;21126;-79
2021/12/05 17:51:20;;;;;;;36.03;20.97;;;21.20;70.50;;;;;;1957579;73;21125;-79
2021/12/05 17:53:50;;;;;;;28.70;20.48;;;21.20;70.20;;;;;;1954944;72;21578;-79
2021/12/05 17:56:37;;;;;;;31.15;19.98;;;21.20;70.50;;;;;;1934168;73;21067;-79
2021/12/05 17:59:05;;;;;;;26.68;19.55;;;21.10;70.70;;;;;;1930977;72;21137;-79
2021/12/05 18:03:59;;;;;;;30.25;18.82;;;21.10;70.80;;;;;;1922708;74;21609;-79
2021/12/05 18:06:30;;;;;;;28.60;18.57;;;21.10;71.10;;;;;;1923758;74;21492;-79
2021/12/05 18:09:02;;;;;;;31.40;18.90;;;21.10;71.50;;;;;;1915675;75;21134;-79
2021/12/05 18:11:35;;;;;;;26.65;18.50;;;21.00;71.40;;;;;;1958294;72;21522;-79
2021/12/05 18:14:06;;;;;;;27.22;19.98;;;21.00;71.50;;;;;;1961230;72;21664;-79
2021/12/05 18:16:37;;;;;;;25.52;18.90;;;21.00;71.50;;;;;;1925220;73;21110;-79
2021/12/05 18:19:11;;;;;;;30.23;20.08;;;21.00;71.70;;;;;;1924581;74;21132;-79
2021/12/05 18:21:45;;;;;;;27.15;19.23;;;20.90;71.90;;;;;;1928632;73;21392;-79
2021/12/05 18:24:18;;;;;;;27.42;18.35;;;20.90;71.80;;;;;;1949494;73;21095;-80
2021/12/05 18:26:50;;;;;;;25.05;17.62;;;20.90;71.80;;;;;;1955135;73;21870;-79
2021/12/05 18:29:22;;;;;;;24.72;17.87;;;20.90;71.60;;;;;;1972607;72;21185;-80
2021/12/05 18:31:55;;;;;;;24.87;18.20;;;20.90;71.50;;;;;;1990296;72;21086;-79
2021/12/05 18:34:29;;;;;;;30.45;18.75;;;20.80;71.50;;;;;;1990001;72;21118;-79